createdAt,value
2018-07-08T00:00:45.521Z,9.20
2018-07-08T00:03:14.616Z,9.00
2018-07-08T00:05:43.271Z,8.50
2018-07-08T00:08:11.989Z,9.00
2018-07-08T00:10:42.652Z,9.10
2018-07-08T00:13:11.344Z,9.00
2018-07-08T00:15:40.203Z,9.03
2018-07-08T00:18:09.291Z,8.80
2018-07-08T00:20:38.003Z,9.13
2018-07-08T00:23:06.772Z,9.77
2018-07-08T00:25:35.750Z,8.90
2018-07-08T00:28:04.623Z,8.90
2018-07-08T00:30:33.477Z,8.87
2018-07-08T00:33:02.778Z,9.80
2018-07-08T00:35:31.872Z,9.50
2018-07-08T00:38:02.050Z,8.87
2018-07-08T00:40:31.219Z,8.83
2018-07-08T00:43:00.223Z,9.03
2018-07-08T00:45:29.353Z,9.07
2018-07-08T00:47:58.667Z,8.90
2018-07-08T00:50:27.518Z,9.40
2018-07-08T00:52:56.298Z,8.90
2018-07-08T00:55:24.992Z,9.70
2018-07-08T00:57:53.721Z,9.20
2018-07-08T01:00:37.894Z,9.60
2018-07-08T01:03:09.482Z,9.60
2018-07-08T01:05:38.420Z,9.20
2018-07-08T01:08:07.147Z,9.07
2018-07-08T01:10:35.942Z,9.03
2018-07-08T01:13:04.816Z,8.83
2018-07-08T01:15:33.568Z,9.47
2018-07-08T01:18:02.298Z,9.10
2018-07-08T01:20:31.025Z,9.50
2018-07-08T01:22:59.663Z,9.40
2018-07-08T01:25:39.382Z,8.87
2018-07-08T01:28:08.725Z,9.80
2018-07-08T01:30:37.492Z,9.20
2018-07-08T01:33:06.587Z,8.70
2018-07-08T01:35:35.345Z,9.97
2018-07-08T01:38:04.038Z,9.13
2018-07-08T01:40:32.680Z,9.50
2018-07-08T01:43:01.358Z,9.40
2018-07-08T01:45:30.047Z,9.70
2018-07-08T01:47:58.803Z,9.17
2018-07-08T01:50:27.463Z,9.43
2018-07-08T01:52:56.112Z,9.00
2018-07-08T01:55:24.981Z,9.57
2018-07-08T01:57:53.644Z,9.83
2018-07-08T02:00:22.385Z,9.87
2018-07-08T02:02:51.475Z,9.10
2018-07-08T02:05:20.293Z,9.10
2018-07-08T02:07:48.969Z,9.63
2018-07-08T02:10:17.736Z,9.73
2018-07-08T02:12:46.884Z,9.00
2018-07-08T02:15:15.953Z,9.13
2018-07-08T02:17:44.722Z,9.10
2018-07-08T02:20:13.468Z,9.50
2018-07-08T02:22:42.140Z,9.87
2018-07-08T02:25:11.557Z,9.30
2018-07-08T02:27:41.763Z,9.90
2018-07-08T02:30:10.518Z,9.10
2018-07-08T02:32:39.562Z,9.07
2018-07-08T02:35:08.233Z,9.43
2018-07-08T02:37:36.986Z,9.73
2018-07-08T02:40:06.144Z,9.43
2018-07-08T02:42:35.538Z,9.70
2018-07-08T02:45:04.246Z,9.37
2018-07-08T02:47:33.021Z,9.30
2018-07-08T02:50:01.715Z,9.70
2018-07-08T02:52:30.538Z,9.70
2018-07-08T02:54:59.249Z,10.47
2018-07-08T02:57:28.223Z,9.50
2018-07-08T02:59:56.970Z,10.10
2018-07-08T03:02:25.711Z,9.87
2018-07-08T03:04:54.400Z,9.63
2018-07-08T03:07:24.242Z,9.17
2018-07-08T03:09:53.275Z,8.80
2018-07-08T03:12:23.528Z,9.63
2018-07-08T03:14:52.233Z,9.30
2018-07-08T03:17:21.551Z,9.80
2018-07-08T03:19:50.341Z,9.60
2018-07-08T03:22:19.014Z,9.23
2018-07-08T03:24:47.709Z,9.70
2018-07-08T03:27:16.405Z,9.63
2018-07-08T03:29:45.046Z,9.50
2018-07-08T03:32:13.808Z,10.40
2018-07-08T03:34:42.538Z,9.57
2018-07-08T03:37:11.772Z,9.60
2018-07-08T03:39:40.430Z,9.43
2018-07-08T03:42:09.140Z,9.50
2018-07-08T03:44:37.798Z,9.30
2018-07-08T03:47:06.475Z,9.30
2018-07-08T03:49:35.160Z,10.40
2018-07-08T03:52:04.398Z,9.80
2018-07-08T03:54:33.800Z,9.13
2018-07-08T03:57:03.632Z,9.00
2018-07-08T03:59:33.263Z,9.47
2018-07-08T04:02:03.120Z,9.50
2018-07-08T04:04:32.411Z,9.80
2018-07-08T04:07:01.681Z,9.67
2018-07-08T04:09:30.673Z,10.07
2018-07-08T04:12:00.252Z,9.83
2018-07-08T04:14:30.020Z,10.50
2018-07-08T04:16:59.353Z,9.60
2018-07-08T04:19:29.214Z,9.20
2018-07-08T04:21:59.731Z,9.80
2018-07-08T04:24:28.941Z,9.80
2018-07-08T04:26:58.020Z,9.50
2018-07-08T04:29:26.948Z,10.77
2018-07-08T04:31:55.907Z,10.00
2018-07-08T04:34:24.631Z,9.53
2018-07-08T04:36:53.341Z,9.90
2018-07-08T04:39:22.003Z,9.60
2018-07-08T04:41:50.721Z,10.40
2018-07-08T04:44:19.410Z,9.67
2018-07-08T04:46:48.120Z,10.27
2018-07-08T04:49:16.778Z,8.93
2018-07-08T04:51:45.516Z,9.87
2018-07-08T04:54:14.119Z,9.57
2018-07-08T04:56:43.095Z,9.57
2018-07-08T04:59:11.774Z,10.40
2018-07-08T05:01:40.444Z,9.37
2018-07-08T05:04:09.384Z,10.07
2018-07-08T05:06:38.586Z,9.63
2018-07-08T05:09:07.599Z,10.73
2018-07-08T05:11:36.568Z,9.90
2018-07-08T05:14:05.229Z,9.60
2018-07-08T05:16:33.981Z,9.73
2018-07-08T05:19:02.613Z,9.47
2018-07-08T05:21:31.449Z,9.20
2018-07-08T05:24:00.386Z,10.57
2018-07-08T05:26:29.358Z,9.20
2018-07-08T05:28:58.308Z,10.30
2018-07-08T05:31:27.071Z,9.90
2018-07-08T05:33:55.755Z,9.77
2018-07-08T05:36:24.369Z,9.80
2018-07-08T05:38:53.130Z,10.10
2018-07-08T05:41:21.769Z,9.80
2018-07-08T05:43:50.455Z,10.50
2018-07-08T05:46:19.106Z,9.47
2018-07-08T05:48:47.897Z,9.73
2018-07-08T05:51:16.587Z,10.17
2018-07-08T05:53:46.134Z,10.67
2018-07-08T05:56:14.808Z,10.10
2018-07-08T05:58:43.636Z,9.87
2018-07-08T06:01:12.254Z,9.87
2018-07-08T06:03:42.874Z,10.20
2018-07-08T06:06:14.150Z,10.30
2018-07-08T06:08:43.405Z,10.13
2018-07-08T06:11:12.035Z,10.60
2018-07-08T06:13:40.821Z,10.50
2018-07-08T06:16:09.479Z,10.43
2018-07-08T06:18:38.376Z,11.00
2018-07-08T06:21:07.501Z,9.87
2018-07-08T06:23:36.745Z,11.67
2018-07-08T06:26:06.167Z,11.07
2018-07-08T06:28:34.872Z,11.00
2018-07-08T06:31:03.485Z,10.47
2018-07-08T06:33:32.492Z,11.23
2018-07-08T06:36:01.454Z,10.30
2018-07-08T06:38:30.189Z,11.23
2018-07-08T06:40:59.104Z,11.30
2018-07-08T06:43:28.277Z,12.07
2018-07-08T06:45:57.606Z,11.40
2018-07-08T06:48:26.581Z,12.80
2018-07-08T06:50:55.519Z,10.77
2018-07-08T06:53:24.201Z,12.67
2018-07-08T06:55:52.886Z,11.23
2018-07-08T06:58:21.847Z,10.80
2018-07-08T07:00:50.883Z,11.27
2018-07-08T07:03:19.977Z,11.73
2018-07-08T07:05:48.920Z,11.73
2018-07-08T07:08:17.988Z,12.00
2018-07-08T07:10:47.034Z,12.40
2018-07-08T07:13:16.195Z,12.80
2018-07-08T07:15:45.683Z,12.23
2018-07-08T07:18:14.626Z,12.73
2018-07-08T07:20:43.270Z,11.50
2018-07-08T07:23:12.237Z,11.77
2018-07-08T07:25:40.898Z,11.70
2018-07-08T07:28:09.527Z,11.97
2018-07-08T07:30:38.171Z,11.93
2018-07-08T07:33:07.257Z,12.13
2018-07-08T07:35:36.216Z,12.10
2018-07-08T07:38:05.841Z,12.40
2018-07-08T07:40:34.499Z,12.00
2018-07-08T07:43:03.541Z,12.93
2018-07-08T07:45:32.617Z,12.77
2018-07-08T07:48:01.236Z,12.80
2018-07-08T07:50:29.999Z,12.40
2018-07-08T07:52:58.681Z,12.67
2018-07-08T07:55:27.302Z,13.07
2018-07-08T07:57:55.994Z,12.30
2018-07-08T08:00:24.883Z,12.30
2018-07-08T08:02:53.939Z,12.50
2018-07-08T08:05:22.738Z,13.13
2018-07-08T08:07:51.845Z,12.33
2018-07-08T08:10:20.864Z,12.13
2018-07-08T08:12:49.642Z,12.27
2018-07-08T08:15:18.507Z,13.47
2018-07-08T08:17:47.396Z,12.57
2018-07-08T08:20:16.066Z,12.90
2018-07-08T08:22:44.753Z,13.60
2018-07-08T08:25:13.444Z,12.50
2018-07-08T08:27:43.274Z,13.57
2018-07-08T08:30:12.152Z,13.20
2018-07-08T08:32:40.886Z,12.83
2018-07-08T08:35:11.780Z,13.00
2018-07-08T08:37:45.522Z,13.17
2018-07-08T08:40:15.635Z,13.07
2018-07-08T08:42:44.287Z,13.13
2018-07-08T08:45:14.257Z,12.93
2018-07-08T08:47:43.293Z,13.13
2018-07-08T08:50:12.745Z,12.63
2018-07-08T08:52:41.423Z,13.73
2018-07-08T08:55:11.208Z,13.10
2018-07-08T08:57:40.015Z,12.30
2018-07-08T09:00:11.083Z,13.00
2018-07-08T09:02:40.496Z,12.90
2018-07-08T09:05:10.187Z,13.30
2018-07-08T09:07:38.899Z,13.60
2018-07-08T09:10:07.798Z,14.60
2018-07-08T09:12:36.741Z,13.83
2018-07-08T09:15:05.558Z,13.10
2018-07-08T09:17:34.633Z,13.83
2018-07-08T09:20:03.426Z,13.90
2018-07-08T09:22:32.180Z,13.57
2018-07-08T09:25:01.384Z,13.20
2018-07-08T09:27:30.055Z,13.67
2018-07-08T09:29:58.804Z,13.27
2018-07-08T09:32:27.837Z,12.70
2018-07-08T09:34:56.544Z,13.80
2018-07-08T09:37:25.347Z,14.07
2018-07-08T09:39:54.516Z,12.90
2018-07-08T09:42:23.170Z,12.33
2018-07-08T09:44:52.413Z,12.30
2018-07-08T09:47:21.073Z,12.50
2018-07-08T09:49:49.753Z,12.50
2018-07-08T09:52:18.451Z,12.60
2018-07-08T09:54:47.504Z,13.40
2018-07-08T09:57:16.556Z,13.10
2018-07-08T09:59:45.976Z,12.50
2018-07-08T10:02:14.766Z,13.47
2018-07-08T10:04:43.494Z,13.13
2018-07-08T10:07:12.131Z,14.40
2018-07-08T10:09:41.183Z,13.57
2018-07-08T10:12:09.957Z,13.90
2018-07-08T10:14:38.639Z,13.67
2018-07-08T10:17:07.381Z,12.77
2018-07-08T10:19:36.172Z,14.70
2018-07-08T10:22:05.014Z,13.00
2018-07-08T10:24:33.791Z,14.23
2018-07-08T10:27:21.540Z,14.40
2018-07-08T10:29:50.227Z,13.53
2018-07-08T10:32:19.272Z,15.13
2018-07-08T10:34:48.039Z,14.43
2018-07-08T10:37:17.263Z,13.97
2018-07-08T10:39:45.945Z,14.13
2018-07-08T10:42:14.965Z,13.77
2018-07-08T10:44:43.786Z,14.57
2018-07-08T10:47:12.562Z,13.73
2018-07-08T10:49:42.045Z,14.60
2018-07-08T10:52:10.795Z,14.07
2018-07-08T10:54:39.822Z,13.70
2018-07-08T10:57:08.836Z,14.47
2018-07-08T10:59:37.531Z,14.57
2018-07-08T11:02:06.429Z,14.57
2018-07-08T11:04:35.178Z,14.30
2018-07-08T11:07:04.229Z,14.10
2018-07-08T11:09:33.570Z,13.77
2018-07-08T11:12:02.713Z,13.90
2018-07-08T11:14:31.686Z,15.10
2018-07-08T11:17:00.376Z,14.07
2018-07-08T11:19:29.496Z,14.47
2018-07-08T11:21:58.285Z,14.00
2018-07-08T11:24:26.940Z,13.70
2018-07-08T11:26:55.581Z,13.80
2018-07-08T11:29:24.292Z,13.20
2018-07-08T11:31:53.269Z,12.20
2018-07-08T11:34:21.997Z,11.90
2018-07-08T11:36:50.779Z,13.80
2018-07-08T11:39:20.028Z,13.10
2018-07-08T11:41:48.783Z,12.70
2018-07-08T11:44:17.454Z,12.63
2018-07-08T11:46:46.360Z,13.37
2018-07-08T11:49:15.526Z,13.20
2018-07-08T11:51:44.403Z,15.53
2018-07-08T11:54:13.119Z,14.60
2018-07-08T11:56:42.203Z,13.20
2018-07-08T11:59:10.929Z,13.87
2018-07-08T12:01:39.595Z,13.87
2018-07-08T12:04:08.339Z,12.73
2018-07-08T12:06:37.102Z,13.27
2018-07-08T12:09:06.424Z,13.37
2018-07-08T12:11:35.220Z,13.33
2018-07-08T12:14:03.940Z,13.80
2018-07-08T12:16:32.756Z,14.20
2018-07-08T12:19:01.487Z,13.30
2018-07-08T12:21:30.604Z,12.33
2018-07-08T12:23:59.338Z,13.13
2018-07-08T12:26:28.079Z,13.33
2018-07-08T12:28:56.830Z,12.57
2018-07-08T12:31:25.555Z,13.77
2018-07-08T12:33:54.759Z,13.10
2018-07-08T12:36:23.871Z,12.83
2018-07-08T12:38:53.020Z,13.10
2018-07-08T12:41:22.090Z,13.30
2018-07-08T12:43:50.824Z,13.93
2018-07-08T12:46:20.100Z,13.40
2018-07-08T12:48:48.873Z,12.93
2018-07-08T12:51:17.588Z,13.33
2018-07-08T12:53:46.583Z,13.70
2018-07-08T12:56:15.696Z,12.80
2018-07-08T12:58:44.709Z,14.57
2018-07-08T13:01:13.520Z,12.90
2018-07-08T13:03:42.267Z,12.77
2018-07-08T13:06:11.326Z,13.10
2018-07-08T13:08:40.621Z,11.67
2018-07-08T13:11:11.106Z,11.50
2018-07-08T13:13:39.869Z,11.00
2018-07-08T13:16:09.277Z,11.00
2018-07-08T13:18:38.475Z,11.75
2018-07-08T13:21:10.718Z,10.90
2018-07-08T13:23:39.839Z,10.38
2018-07-08T13:26:08.705Z,9.85
2018-07-08T13:28:37.560Z,9.68
2018-07-08T13:31:07.065Z,10.13
2018-07-08T13:33:35.900Z,10.32
2018-07-08T13:36:05.017Z,9.98
2018-07-08T13:38:33.780Z,9.80
2018-07-08T13:41:02.514Z,9.70
2018-07-08T13:43:31.639Z,9.70
2018-07-08T13:46:00.395Z,9.88
2018-07-08T13:48:29.448Z,10.20
2018-07-08T13:50:58.287Z,10.20
2018-07-08T13:53:27.344Z,10.10
2018-07-08T13:55:56.029Z,9.90
2018-07-08T13:58:24.741Z,10.50
2018-07-08T14:00:53.575Z,9.83
2018-07-08T14:03:22.587Z,9.45
2018-07-08T14:05:51.201Z,9.55
2018-07-08T14:08:19.929Z,9.85
2018-07-08T14:10:48.693Z,9.63
2018-07-08T14:13:18.122Z,9.70
2018-07-08T14:15:47.209Z,9.85
2018-07-08T14:18:15.884Z,9.88
2018-07-08T14:20:44.768Z,10.80
2018-07-08T14:23:13.369Z,9.73
2018-07-08T14:25:42.253Z,10.10
2018-07-08T14:28:10.918Z,10.40
2018-07-08T14:30:39.540Z,10.60
2018-07-08T14:33:08.507Z,10.68
2018-07-08T14:35:37.295Z,10.45
2018-07-08T14:38:06.266Z,11.20
2018-07-08T14:40:35.621Z,10.53
2018-07-08T14:43:04.295Z,10.97
2018-07-08T14:45:33.268Z,11.60
2018-07-08T14:48:02.329Z,11.40
2018-07-08T14:50:31.553Z,12.97
2018-07-08T14:53:00.215Z,11.73
2018-07-08T14:55:29.009Z,12.67
2018-07-08T14:57:57.663Z,12.00
2018-07-08T15:00:26.718Z,12.10
2018-07-08T15:02:55.753Z,12.30
2018-07-08T15:05:25.090Z,11.73
2018-07-08T15:07:53.760Z,12.07
2018-07-08T15:10:22.450Z,12.20
2018-07-08T15:12:51.110Z,11.90
2018-07-08T15:15:20.159Z,12.07
2018-07-08T15:17:48.786Z,12.23
2018-07-08T15:20:17.738Z,12.50
2018-07-08T15:22:46.594Z,11.80
2018-07-08T15:25:15.600Z,11.93
2018-07-08T15:27:44.286Z,12.77
2018-07-08T15:30:13.017Z,12.00
2018-07-08T15:32:41.735Z,11.33
2018-07-08T15:35:10.656Z,12.10
2018-07-08T15:37:40.768Z,11.87
2018-07-08T15:40:09.840Z,11.97
2018-07-08T15:42:38.537Z,11.03
2018-07-08T15:45:08.228Z,11.93
2018-07-08T15:47:36.908Z,11.93
2018-07-08T15:50:05.971Z,12.27
2018-07-08T15:52:34.732Z,12.30
2018-07-08T15:55:03.610Z,11.60
2018-07-08T15:57:32.512Z,11.90
2018-07-08T16:00:01.189Z,12.00
2018-07-08T16:02:30.555Z,11.90
2018-07-08T16:04:59.332Z,11.70
2018-07-08T16:07:28.061Z,11.00
2018-07-08T16:09:57.027Z,11.87
2018-07-08T16:12:25.747Z,12.00
2018-07-08T16:14:54.977Z,12.13
2018-07-08T16:17:23.862Z,13.10
2018-07-08T16:19:52.596Z,12.17
2018-07-08T16:22:21.799Z,12.00
2018-07-08T16:24:50.619Z,11.70
2018-07-08T16:27:19.646Z,11.83
2018-07-08T16:29:48.612Z,11.50
2018-07-08T16:32:17.663Z,12.50
2018-07-08T16:34:46.720Z,12.40
2018-07-08T16:37:15.429Z,11.83
2018-07-08T16:39:44.141Z,11.83
2018-07-08T16:42:12.845Z,12.23
2018-07-08T16:44:42.070Z,12.53
2018-07-08T16:47:13.168Z,11.10
2018-07-08T16:49:41.861Z,11.30
2018-07-08T16:52:10.632Z,12.10
2018-07-08T16:54:39.693Z,11.50
2018-07-08T16:57:08.473Z,11.67
2018-07-08T16:59:37.150Z,11.87
2018-07-08T17:02:12.569Z,11.50
2018-07-08T17:04:41.433Z,11.93
2018-07-08T17:07:10.447Z,11.53
2018-07-08T17:09:39.222Z,12.07
2018-07-08T17:12:08.086Z,11.40
2018-07-08T17:14:37.271Z,10.57
2018-07-08T17:17:06.055Z,10.90
2018-07-08T17:19:34.790Z,11.30
2018-07-08T17:22:03.612Z,12.07
2018-07-08T17:24:32.558Z,12.23
2018-07-08T17:27:01.287Z,10.80
2018-07-08T17:29:30.249Z,11.53
2018-07-08T17:31:59.303Z,11.50
2018-07-08T17:34:28.136Z,11.30
2018-07-08T17:36:57.423Z,11.50
2018-07-08T17:39:26.246Z,11.63
2018-07-08T17:41:55.346Z,11.43
2018-07-08T17:44:24.400Z,11.37
2018-07-08T17:46:53.216Z,11.97
2018-07-08T17:49:22.182Z,12.50
2018-07-08T17:51:51.710Z,11.90
2018-07-08T17:54:21.509Z,12.00
2018-07-08T17:56:50.244Z,11.43
2018-07-08T17:59:19.032Z,10.97
2018-07-08T18:01:48.163Z,11.40
2018-07-08T18:04:16.884Z,11.10
2018-07-08T18:06:46.290Z,11.60
2018-07-08T18:09:15.551Z,11.20
2018-07-08T18:11:44.371Z,10.77
2018-07-08T18:14:13.420Z,11.03
2018-07-08T18:16:42.702Z,10.87
2018-07-08T18:19:11.588Z,11.70
2018-07-08T18:21:40.811Z,11.20
2018-07-08T18:24:09.537Z,11.00
2018-07-08T18:26:38.229Z,10.90
2018-07-08T18:29:07.009Z,11.53
2018-07-08T18:31:35.900Z,11.30
2018-07-08T18:34:04.622Z,10.10
2018-07-08T18:36:33.337Z,10.70
2018-07-08T18:39:02.127Z,11.10
2018-07-08T18:41:30.941Z,11.20
2018-07-08T18:43:59.727Z,10.60
2018-07-08T18:46:28.501Z,10.77
2018-07-08T18:48:57.468Z,10.80
2018-07-08T18:51:26.192Z,10.53
2018-07-08T18:53:54.853Z,10.80
2018-07-08T18:56:24.098Z,10.93
2018-07-08T18:58:53.026Z,10.73
2018-07-08T19:01:21.947Z,10.70
2018-07-08T19:03:52.066Z,10.37
2018-07-08T19:06:20.944Z,10.87
2018-07-08T19:08:49.700Z,10.47
2018-07-08T19:11:18.415Z,10.90
2018-07-08T19:13:47.727Z,10.33
2018-07-08T19:16:16.857Z,10.70
2018-07-08T19:18:45.628Z,10.77
2018-07-08T19:21:14.392Z,10.73
2018-07-08T19:23:43.429Z,10.70
2018-07-08T19:26:12.388Z,10.73
2018-07-08T19:28:41.086Z,11.17
2018-07-08T19:31:09.849Z,10.40
2018-07-08T19:33:38.760Z,10.20
2018-07-08T19:36:07.700Z,10.87
2018-07-08T19:38:36.511Z,10.70
2018-07-08T19:41:05.868Z,10.27
2018-07-08T19:43:34.827Z,11.33
2018-07-08T19:46:04.026Z,11.53
2018-07-08T19:48:33.614Z,10.30
2018-07-08T19:51:02.407Z,11.97
2018-07-08T19:53:31.431Z,11.30
2018-07-08T19:56:00.982Z,11.33
2018-07-08T19:58:29.827Z,11.07
2018-07-08T20:00:58.631Z,10.13
2018-07-08T20:03:27.327Z,11.53
2018-07-08T20:05:55.971Z,10.40
2018-07-08T20:08:24.738Z,9.90
2018-07-08T20:10:53.849Z,10.77
2018-07-08T20:13:22.700Z,10.90
2018-07-08T20:15:52.039Z,11.40
2018-07-08T20:18:20.808Z,10.80
2018-07-08T20:20:49.636Z,10.30
2018-07-08T20:23:19.447Z,10.80
2018-07-08T20:25:48.319Z,10.97
2018-07-08T20:28:17.145Z,10.20
2018-07-08T20:30:46.266Z,10.70
2018-07-08T20:33:14.948Z,10.63
2018-07-08T20:35:43.950Z,10.83
2018-07-08T20:38:12.561Z,10.50
2018-07-08T20:40:41.679Z,10.30
2018-07-08T20:43:10.566Z,10.80
2018-07-08T20:45:39.394Z,10.50
2018-07-08T20:48:08.233Z,10.60
2018-07-08T20:50:36.926Z,10.47
2018-07-08T20:53:05.723Z,10.77
2018-07-08T20:55:34.577Z,10.80
2018-07-08T20:58:03.311Z,11.20
2018-07-08T21:00:32.330Z,10.80
2018-07-08T21:03:01.074Z,11.03
2018-07-08T21:05:30.422Z,10.83
2018-07-08T21:07:59.202Z,10.70
2018-07-08T21:10:28.029Z,10.70
2018-07-08T21:12:56.673Z,11.57
2018-07-08T21:15:25.299Z,10.33
2018-07-08T21:17:53.976Z,10.77
2018-07-08T21:20:22.761Z,10.47
2018-07-08T21:22:51.800Z,10.60
2018-07-08T21:25:20.510Z,10.63
2018-07-08T21:27:50.242Z,10.97
2018-07-08T21:30:18.866Z,10.70
2018-07-08T21:32:47.476Z,11.70
2018-07-08T21:35:17.083Z,11.10
2018-07-08T21:37:46.137Z,11.10
2018-07-08T21:40:14.825Z,10.60
2018-07-08T21:42:43.782Z,11.40
2018-07-08T21:45:12.763Z,10.97
2018-07-08T21:47:41.580Z,11.00
2018-07-08T21:50:10.180Z,11.13
2018-07-08T21:52:38.931Z,11.57
2018-07-08T21:55:07.768Z,11.33
2018-07-08T21:57:36.471Z,11.10
2018-07-08T22:00:05.786Z,10.70
2018-07-08T22:02:34.626Z,10.90
2018-07-08T22:05:03.528Z,11.00
2018-07-08T22:07:37.742Z,10.60
2018-07-08T22:10:07.887Z,11.10
2018-07-08T22:12:38.172Z,11.17
2018-07-08T22:15:06.999Z,11.07
2018-07-08T22:17:35.638Z,10.87
2018-07-08T22:20:04.665Z,10.90
2018-07-08T22:22:33.420Z,10.60
2018-07-08T22:25:02.067Z,10.37
2018-07-08T22:27:32.043Z,12.10
2018-07-08T22:30:00.711Z,11.37
2018-07-08T22:32:29.414Z,10.47
2018-07-08T22:34:58.716Z,10.83
2018-07-08T22:37:27.525Z,11.30
2018-07-08T22:39:56.380Z,11.13
2018-07-08T22:42:25.394Z,10.23
2018-07-08T22:44:54.908Z,10.93
2018-07-08T22:47:23.552Z,10.57
2018-07-08T22:49:52.259Z,10.60
2018-07-08T22:52:21.113Z,10.57
2018-07-08T22:54:49.768Z,10.70
2018-07-08T22:57:18.436Z,10.60
2018-07-08T22:59:58.228Z,10.53
2018-07-08T23:02:39.288Z,10.57
2018-07-08T23:05:07.972Z,10.13
2018-07-08T23:07:36.670Z,10.43
2018-07-08T23:10:05.350Z,11.13
2018-07-08T23:12:34.090Z,10.87
2018-07-08T23:15:03.070Z,10.90
2018-07-08T23:17:32.155Z,10.80
2018-07-08T23:20:01.917Z,10.80
2018-07-08T23:22:42.178Z,10.00
2018-07-08T23:25:12.368Z,11.10
2018-07-08T23:27:41.333Z,10.60
2018-07-08T23:30:10.329Z,10.90
2018-07-08T23:32:39.481Z,10.43
2018-07-08T23:35:08.218Z,10.90
2018-07-08T23:37:36.922Z,10.60
2018-07-08T23:40:05.616Z,11.40
2018-07-08T23:42:34.264Z,10.70
2018-07-08T23:45:02.964Z,10.60
2018-07-08T23:47:31.671Z,10.90
2018-07-08T23:50:00.651Z,11.20
2018-07-08T23:52:29.626Z,10.20
2018-07-08T23:54:58.294Z,10.77
2018-07-08T23:57:27.018Z,10.67
2018-07-08T23:59:56.039Z,10.50
